Alanson, Michigan
Current Conditions -  °F | °C
As of 5:15 PM on Tuesday 25 Nov 2014 (Local Time) from KMGN Reporting Station
Overcast Overcast  
Wind Chill: 20°   Ceiling: 3600
Heat Index: 28°   Visibility: 10mi
Dew Point: 24°   Wind: 9mph
Humidity: 82%   Direction: 290°WNW
Pressure: 30.01"   Gusts: NA
Location:  45.44°N, 84.79°W
Report Text: KMGN 252215Z AUTO 29008KT 10SM BKN036 OVC041 M02/M05 A3001 RMK AO2 T10201047
Loading
Personal Weather Stations






























Interactive Weather Map New forecast layout! Learn more

10-Day Weather Forecast

Advertisements
Track Severe Weather on mobile